createdAt,value
2018-09-04T00:00:03.027Z,14.20
2018-09-04T00:02:31.304Z,14.10
2018-09-04T00:04:59.604Z,14.20
2018-09-04T00:07:27.860Z,14.10
2018-09-04T00:09:56.129Z,14.10
2018-09-04T00:12:24.393Z,14.10
2018-09-04T00:14:52.653Z,14.00
2018-09-04T00:17:20.956Z,14.00
2018-09-04T00:19:49.211Z,14.00
2018-09-04T00:22:17.481Z,14.00
2018-09-04T00:24:45.830Z,14.00
2018-09-04T00:27:14.130Z,14.00
2018-09-04T00:29:42.458Z,14.00
2018-09-04T00:32:10.742Z,14.00
2018-09-04T00:34:38.971Z,13.90
2018-09-04T00:37:07.336Z,13.90
2018-09-04T00:39:35.658Z,13.80
2018-09-04T00:42:03.986Z,13.80
2018-09-04T00:44:32.259Z,13.80
2018-09-04T00:47:00.555Z,13.80
2018-09-04T00:49:28.797Z,13.80
2018-09-04T00:51:57.098Z,13.70
2018-09-04T00:54:25.361Z,13.70
2018-09-04T00:56:53.685Z,13.70
2018-09-04T00:59:22.021Z,13.70
2018-09-04T01:01:50.346Z,13.80
2018-09-04T01:04:18.609Z,13.80
2018-09-04T01:06:46.852Z,13.70
2018-09-04T01:09:17.739Z,13.70
2018-09-04T01:11:46.081Z,13.60
2018-09-04T01:14:14.672Z,13.60
2018-09-04T01:16:42.962Z,13.50
2018-09-04T01:19:11.242Z,13.50
2018-09-04T01:21:39.504Z,13.50
2018-09-04T01:24:07.905Z,13.50
2018-09-04T01:26:36.227Z,13.50
2018-09-04T01:29:04.608Z,13.50
2018-09-04T01:31:32.927Z,13.40
2018-09-04T01:34:01.593Z,13.50
2018-09-04T01:36:30.181Z,13.50
2018-09-04T01:38:58.560Z,13.40
2018-09-04T01:41:26.894Z,13.40
2018-09-04T01:43:55.213Z,13.30
2018-09-04T01:46:23.530Z,13.30
2018-09-04T01:48:53.094Z,13.30
2018-09-04T01:51:21.442Z,13.30
2018-09-04T01:53:49.743Z,13.40
2018-09-04T01:56:18.070Z,13.40
2018-09-04T01:58:46.400Z,13.30
2018-09-04T02:01:14.696Z,13.20
2018-09-04T02:03:42.975Z,13.20
2018-09-04T02:06:11.273Z,13.10
2018-09-04T02:08:39.525Z,13.10
2018-09-04T02:11:07.849Z,13.10
2018-09-04T02:13:36.113Z,13.20
2018-09-04T02:16:04.452Z,13.20
2018-09-04T02:18:32.695Z,13.10
2018-09-04T02:21:01.129Z,13.20
2018-09-04T02:23:29.404Z,13.20
2018-09-04T02:25:57.750Z,13.10
2018-09-04T02:28:26.063Z,13.00
2018-09-04T02:30:54.413Z,13.00
2018-09-04T02:33:22.700Z,13.00
2018-09-04T02:35:51.011Z,13.00
2018-09-04T02:38:19.286Z,13.10
2018-09-04T02:40:47.545Z,13.10
2018-09-04T02:43:15.825Z,13.10
2018-09-04T02:45:44.165Z,13.10
2018-09-04T02:48:12.430Z,13.00
2018-09-04T02:50:40.798Z,13.00
2018-09-04T02:53:09.111Z,12.90
2018-09-04T02:55:37.335Z,12.90
2018-09-04T02:58:05.902Z,12.90
2018-09-04T03:00:34.114Z,12.90
2018-09-04T03:03:02.397Z,13.00
2018-09-04T03:05:30.812Z,13.00
2018-09-04T03:07:59.148Z,12.90
2018-09-04T03:10:27.466Z,13.00
2018-09-04T03:12:55.774Z,13.00
2018-09-04T03:15:24.087Z,13.00
2018-09-04T03:17:52.355Z,13.00
2018-09-04T03:20:20.727Z,12.90
2018-09-04T03:22:49.023Z,12.90
2018-09-04T03:25:17.327Z,12.80
2018-09-04T03:27:45.637Z,12.80
2018-09-04T03:30:13.939Z,12.80
2018-09-04T03:32:42.179Z,12.80
2018-09-04T03:35:10.453Z,12.90
2018-09-04T03:37:38.803Z,12.80
2018-09-04T03:40:07.134Z,12.80
2018-09-04T03:42:35.514Z,12.80
2018-09-04T03:45:04.662Z,12.80
2018-09-04T03:47:32.978Z,12.80
2018-09-04T03:50:01.304Z,12.80
2018-09-04T03:52:29.653Z,12.70
2018-09-04T03:54:57.819Z,12.70
2018-09-04T03:57:26.098Z,12.70
2018-09-04T03:59:54.404Z,12.70
2018-09-04T04:02:22.631Z,12.70
2018-09-04T04:04:50.916Z,12.60
2018-09-04T04:07:19.159Z,12.60
2018-09-04T04:09:47.498Z,12.60
2018-09-04T04:12:15.804Z,12.50
2018-09-04T04:14:44.058Z,12.60
2018-09-04T04:17:12.350Z,12.60
2018-09-04T04:19:40.592Z,12.60
2018-09-04T04:22:08.960Z,12.70
2018-09-04T04:24:37.296Z,12.70
2018-09-04T04:27:05.509Z,12.70
2018-09-04T04:29:33.959Z,12.70
2018-09-04T04:32:02.270Z,12.70
2018-09-04T04:34:30.536Z,12.70
2018-09-04T04:36:58.933Z,12.70
2018-09-04T04:39:27.238Z,12.80
2018-09-04T04:41:55.553Z,12.70
2018-09-04T04:44:23.845Z,12.70
2018-09-04T04:46:52.153Z,12.70
2018-09-04T04:49:20.434Z,12.70
2018-09-04T04:51:48.691Z,12.70
2018-09-04T04:54:17.034Z,12.70
2018-09-04T04:56:45.291Z,12.60
2018-09-04T04:59:13.624Z,12.60
2018-09-04T05:01:41.867Z,12.70
2018-09-04T05:04:10.219Z,12.70
2018-09-04T05:06:38.484Z,12.80
2018-09-04T05:09:07.716Z,12.80
2018-09-04T05:11:36.175Z,12.80
2018-09-04T05:14:04.306Z,12.80
2018-09-04T05:16:32.625Z,12.80
2018-09-04T05:19:00.892Z,12.90
2018-09-04T05:21:29.212Z,12.90
2018-09-04T05:23:57.459Z,12.90
2018-09-04T05:26:25.749Z,12.90
2018-09-04T05:28:54.094Z,12.90
2018-09-04T05:31:22.396Z,12.90
2018-09-04T05:33:50.728Z,12.90
2018-09-04T05:36:18.985Z,12.90
2018-09-04T05:38:47.255Z,12.90
2018-09-04T05:41:15.533Z,12.90
2018-09-04T05:43:52.056Z,12.90
2018-09-04T05:46:32.166Z,13.00
2018-09-04T05:49:01.048Z,13.00
2018-09-04T05:51:29.336Z,13.00
2018-09-04T05:53:58.197Z,13.00
2018-09-04T05:56:26.549Z,13.10
2018-09-04T05:58:55.050Z,13.20
2018-09-04T06:01:23.434Z,13.20
2018-09-04T06:03:52.228Z,13.30
2018-09-04T06:06:20.507Z,13.30
2018-09-04T06:08:49.237Z,13.30
2018-09-04T06:11:17.573Z,13.40
2018-09-04T06:13:45.833Z,13.50
2018-09-04T06:16:14.166Z,13.50
2018-09-04T06:18:42.397Z,13.70
2018-09-04T06:21:10.705Z,13.70
2018-09-04T06:23:38.986Z,13.90
2018-09-04T06:26:07.302Z,13.90
2018-09-04T06:28:35.788Z,14.00
2018-09-04T06:31:04.120Z,14.10
2018-09-04T06:33:32.408Z,14.20
2018-09-04T06:36:00.762Z,14.30
2018-09-04T06:38:29.047Z,14.40
2018-09-04T06:40:57.304Z,14.40
2018-09-04T06:43:25.604Z,14.50
2018-09-04T06:45:53.900Z,14.60
2018-09-04T06:48:22.177Z,14.70
2018-09-04T06:50:50.476Z,14.70
2018-09-04T06:53:18.786Z,14.80
2018-09-04T06:55:47.117Z,14.90
2018-09-04T06:58:15.414Z,15.10
2018-09-04T07:00:43.716Z,15.20
2018-09-04T07:03:12.015Z,15.30
2018-09-04T07:05:40.245Z,15.40
2018-09-04T07:08:08.517Z,15.40
2018-09-04T07:10:36.779Z,15.50
2018-09-04T07:13:05.127Z,15.60
2018-09-04T07:15:33.462Z,15.70
2018-09-04T07:18:01.773Z,15.90
2018-09-04T07:20:30.129Z,16.20
2018-09-04T07:22:58.390Z,16.30
2018-09-04T07:25:26.677Z,16.40
2018-09-04T07:27:55.007Z,16.50
2018-09-04T07:30:23.278Z,16.50
2018-09-04T07:32:51.494Z,16.50
2018-09-04T07:35:19.791Z,16.60
2018-09-04T07:37:48.090Z,16.70
2018-09-04T07:40:16.416Z,16.80
2018-09-04T07:42:44.715Z,17.00
2018-09-04T07:45:12.998Z,17.10
2018-09-04T07:47:41.321Z,17.20
2018-09-04T07:50:10.430Z,17.20
2018-09-04T07:52:38.752Z,17.40
2018-09-04T07:55:07.585Z,17.50
2018-09-04T07:57:35.941Z,17.50
2018-09-04T08:00:04.274Z,17.70
2018-09-04T08:02:34.137Z,17.90
2018-09-04T08:05:02.421Z,18.00
2018-09-04T08:07:30.725Z,18.10
2018-09-04T08:09:59.084Z,18.20
2018-09-04T08:12:27.452Z,18.30
2018-09-04T08:14:55.846Z,18.50
2018-09-04T08:17:24.161Z,18.60
2018-09-04T08:19:52.436Z,18.70
2018-09-04T08:22:20.773Z,18.80
2018-09-04T08:24:50.141Z,18.90
2018-09-04T08:27:18.464Z,19.00
2018-09-04T08:29:46.789Z,19.00
2018-09-04T08:32:15.223Z,19.10
2018-09-04T08:34:43.502Z,19.20
2018-09-04T08:37:11.772Z,19.20
2018-09-04T08:39:40.124Z,19.10
2018-09-04T08:42:08.348Z,19.20
2018-09-04T08:44:36.643Z,19.20
2018-09-04T08:47:04.986Z,19.20
2018-09-04T08:49:33.229Z,19.20
2018-09-04T08:52:01.569Z,19.30
2018-09-04T08:54:29.922Z,19.50
2018-09-04T08:56:59.007Z,19.60
2018-09-04T08:59:27.574Z,19.60
2018-09-04T09:01:55.771Z,19.70
2018-09-04T09:04:24.009Z,19.70
2018-09-04T09:06:52.254Z,19.90
2018-09-04T09:09:20.563Z,19.90
2018-09-04T09:11:48.778Z,19.80
2018-09-04T09:14:17.072Z,19.90
2018-09-04T09:16:45.319Z,20.00
2018-09-04T09:19:13.607Z,20.20
2018-09-04T09:21:41.834Z,20.30
2018-09-04T09:24:10.175Z,20.40
2018-09-04T09:26:38.448Z,20.60
2018-09-04T09:29:06.742Z,20.70
2018-09-04T09:31:35.056Z,20.60
2018-09-04T09:34:03.278Z,20.70
2018-09-04T09:36:31.649Z,20.80
2018-09-04T09:38:59.966Z,21.00
2018-09-04T09:41:28.239Z,21.10
2018-09-04T09:43:56.474Z,21.10
2018-09-04T09:46:24.784Z,21.20
2018-09-04T09:48:53.105Z,21.30
2018-09-04T09:51:21.447Z,21.20
2018-09-04T09:53:49.726Z,21.40
2018-09-04T09:56:18.041Z,21.40
2018-09-04T09:58:46.348Z,21.30
2018-09-04T10:01:19.585Z,21.30
2018-09-04T10:03:53.446Z,21.30
2018-09-04T10:06:22.037Z,21.30
2018-09-04T10:08:50.371Z,21.30
2018-09-04T10:11:18.700Z,21.40
2018-09-04T10:13:47.680Z,21.50
2018-09-04T10:16:16.070Z,21.70
2018-09-04T10:18:44.320Z,22.00
2018-09-04T10:21:12.708Z,22.30
2018-09-04T10:23:41.015Z,22.50
2018-09-04T10:26:09.391Z,22.70
2018-09-04T10:28:37.684Z,22.80
2018-09-04T10:31:06.511Z,22.90
2018-09-04T10:33:34.859Z,22.80
2018-09-04T10:36:03.272Z,22.90
2018-09-04T10:38:31.511Z,23.00
2018-09-04T10:41:00.580Z,23.20
2018-09-04T10:43:29.977Z,23.30
2018-09-04T10:46:00.520Z,23.30
2018-09-04T10:48:29.562Z,23.30
2018-09-04T10:50:57.973Z,23.00
2018-09-04T10:53:26.344Z,22.90
2018-09-04T10:55:54.697Z,22.80
2018-09-04T10:58:23.030Z,22.80
2018-09-04T11:00:51.386Z,22.80
2018-09-04T11:03:19.754Z,22.80
2018-09-04T11:05:48.017Z,22.80
2018-09-04T11:08:16.300Z,22.60
2018-09-04T11:10:44.676Z,22.70
2018-09-04T11:13:13.025Z,22.80
2018-09-04T11:15:41.386Z,23.00
2018-09-04T11:18:09.694Z,23.10
2018-09-04T11:20:38.010Z,23.20
2018-09-04T11:23:06.356Z,23.10
2018-09-04T11:25:34.688Z,23.10
2018-09-04T11:28:02.958Z,23.20
2018-09-04T11:30:31.319Z,23.30
2018-09-04T11:32:59.575Z,23.60
2018-09-04T11:35:27.925Z,23.80
2018-09-04T11:37:56.221Z,24.00
2018-09-04T11:40:24.510Z,24.30
2018-09-04T11:42:52.812Z,24.40
2018-09-04T11:45:21.083Z,24.50
2018-09-04T11:47:49.668Z,24.60
2018-09-04T11:50:17.923Z,24.50
2018-09-04T11:52:46.263Z,24.30
2018-09-04T11:55:14.542Z,24.30
2018-09-04T11:57:42.867Z,24.30
2018-09-04T12:00:16.808Z,24.20
2018-09-04T12:02:45.731Z,24.20
2018-09-04T12:05:13.958Z,24.30
2018-09-04T12:07:42.262Z,24.00
2018-09-04T12:10:11.295Z,24.20
2018-09-04T12:12:39.723Z,24.30
2018-09-04T12:15:07.926Z,24.40
2018-09-04T12:17:36.314Z,24.70
2018-09-04T12:20:16.802Z,24.90
2018-09-04T12:22:45.101Z,25.20
2018-09-04T12:25:13.384Z,25.50
2018-09-04T12:27:41.682Z,25.80
2018-09-04T12:30:11.643Z,26.10
2018-09-04T12:32:39.961Z,26.20
2018-09-04T12:35:08.265Z,26.30
2018-09-04T12:37:36.503Z,26.40
2018-09-04T12:40:04.949Z,26.40
2018-09-04T12:42:33.190Z,26.20
2018-09-04T12:45:01.493Z,26.00
2018-09-04T12:47:29.810Z,25.90
2018-09-04T12:49:58.119Z,25.60
2018-09-04T12:52:26.399Z,25.60
2018-09-04T12:54:55.175Z,25.30
2018-09-04T12:57:23.541Z,25.40
2018-09-04T12:59:51.884Z,25.50
2018-09-04T13:02:20.081Z,25.70
2018-09-04T13:04:48.349Z,25.60
2018-09-04T13:07:16.654Z,25.60
2018-09-04T13:09:44.967Z,25.60
2018-09-04T13:12:13.242Z,25.70
2018-09-04T13:14:41.555Z,25.80
2018-09-04T13:17:09.871Z,25.80
2018-09-04T13:19:38.407Z,25.80
2018-09-04T13:22:06.665Z,25.80
2018-09-04T13:24:35.035Z,25.80
2018-09-04T13:27:03.485Z,25.80
2018-09-04T13:29:31.823Z,25.90
2018-09-04T13:32:00.129Z,26.10
2018-09-04T13:34:28.493Z,25.90
2018-09-04T13:36:56.778Z,25.60
2018-09-04T13:39:25.166Z,25.50
2018-09-04T13:41:53.390Z,25.40
2018-09-04T13:44:21.655Z,25.20
2018-09-04T13:46:49.950Z,25.10
2018-09-04T13:49:18.348Z,25.00
2018-09-04T13:51:46.608Z,25.10
2018-09-04T13:54:14.918Z,25.20
2018-09-04T13:56:43.182Z,25.30
2018-09-04T13:59:11.454Z,25.40
2018-09-04T14:01:39.706Z,25.60
2018-09-04T14:04:07.962Z,25.80
2018-09-04T14:06:36.439Z,25.60
2018-09-04T14:09:06.137Z,25.80
2018-09-04T14:11:34.450Z,25.80
2018-09-04T14:14:02.781Z,25.80
2018-09-04T14:16:43.148Z,25.80
2018-09-04T14:18:59.384Z,25.60
2018-09-04T14:21:27.668Z,25.60
2018-09-04T14:23:55.994Z,25.70
2018-09-04T14:26:24.313Z,25.80
2018-09-04T14:29:06.419Z,25.90
2018-09-04T14:31:20.878Z,26.00
2018-09-04T14:36:24.008Z,25.90
2018-09-04T14:38:52.257Z,25.90
2018-09-04T14:41:20.694Z,25.80
2018-09-04T14:43:48.929Z,25.90
2018-09-04T14:46:17.244Z,26.00
2018-09-04T14:48:45.553Z,26.30
2018-09-04T14:51:13.915Z,26.40
2018-09-04T14:53:42.255Z,26.40
2018-09-04T14:56:10.573Z,26.40
2018-09-04T14:58:38.841Z,26.20
2018-09-04T15:01:07.178Z,26.00
2018-09-04T15:03:35.540Z,25.90
2018-09-04T15:06:03.867Z,25.80
2018-09-04T15:08:32.178Z,25.70
2018-09-04T15:11:00.508Z,25.50
2018-09-04T15:13:28.845Z,25.20
2018-09-04T15:15:57.100Z,25.00
2018-09-04T15:18:25.362Z,24.90
2018-09-04T15:20:53.669Z,24.70
2018-09-04T15:23:21.973Z,24.60
2018-09-04T15:25:50.378Z,24.40
2018-09-04T15:28:18.676Z,24.10
2018-09-04T15:30:47.071Z,23.90
2018-09-04T15:33:15.312Z,23.90
2018-09-04T15:35:43.591Z,23.80
2018-09-04T15:38:11.826Z,23.70
2018-09-04T15:40:40.091Z,23.70
2018-09-04T15:43:08.435Z,23.70
2018-09-04T15:45:36.686Z,23.60
2018-09-04T15:48:05.386Z,23.60
2018-09-04T15:50:33.700Z,23.70
2018-09-04T15:53:02.185Z,23.80
2018-09-04T15:55:30.747Z,23.80
2018-09-04T15:57:59.025Z,23.80
2018-09-04T16:00:27.282Z,23.80
2018-09-04T16:02:55.731Z,23.70
2018-09-04T16:05:24.371Z,23.60
2018-09-04T16:07:52.665Z,23.50
2018-09-04T16:10:21.079Z,23.50
2018-09-04T16:12:49.573Z,23.50
2018-09-04T16:15:17.901Z,23.40
2018-09-04T16:17:46.570Z,23.40
2018-09-04T16:20:14.860Z,23.30
2018-09-04T16:22:43.305Z,23.20
2018-09-04T16:25:11.695Z,23.10
2018-09-04T16:27:40.007Z,23.00
2018-09-04T16:30:08.262Z,23.00
2018-09-04T16:32:36.570Z,22.80
2018-09-04T16:35:04.890Z,22.70
2018-09-04T16:37:33.265Z,22.60
2018-09-04T16:40:01.547Z,22.40
2018-09-04T16:42:29.868Z,22.30
2018-09-04T16:44:58.173Z,22.10
2018-09-04T16:47:26.458Z,21.90
2018-09-04T16:50:24.494Z,21.70
2018-09-04T16:52:52.790Z,21.60
2018-09-04T16:55:21.076Z,21.50
2018-09-04T16:57:49.340Z,21.40
2018-09-04T17:00:17.720Z,21.30
2018-09-04T17:02:46.059Z,21.20
2018-09-04T17:05:14.382Z,21.10
2018-09-04T17:07:43.012Z,21.00
2018-09-04T17:10:11.204Z,20.90
2018-09-04T17:12:39.475Z,20.70
2018-09-04T17:15:07.799Z,20.60
2018-09-04T17:17:36.404Z,20.50
2018-09-04T17:20:04.867Z,20.40
2018-09-04T17:22:33.288Z,20.30
2018-09-04T17:25:01.518Z,20.30
2018-09-04T17:27:29.870Z,20.10
2018-09-04T17:29:58.143Z,20.00
2018-09-04T17:32:26.466Z,19.90
2018-09-04T17:34:54.849Z,19.90
2018-09-04T17:37:23.239Z,19.90
2018-09-04T17:39:51.518Z,19.80
2018-09-04T17:42:19.837Z,19.70
2018-09-04T17:44:48.167Z,19.60
2018-09-04T17:47:16.517Z,19.40
2018-09-04T17:49:44.788Z,19.40
2018-09-04T17:52:13.117Z,19.30
2018-09-04T17:54:41.413Z,19.30
2018-09-04T17:57:09.904Z,19.20
2018-09-04T17:59:38.255Z,19.10
2018-09-04T18:02:06.606Z,18.90
2018-09-04T18:04:34.962Z,18.90
2018-09-04T18:07:03.250Z,18.80
2018-09-04T18:09:31.643Z,18.70
2018-09-04T18:11:59.986Z,18.70
2018-09-04T18:14:28.249Z,18.60
2018-09-04T18:16:56.520Z,18.60
2018-09-04T18:19:24.783Z,18.50
2018-09-04T18:21:53.090Z,18.40
2018-09-04T18:24:21.414Z,18.40
2018-09-04T18:26:49.753Z,18.30
2018-09-04T18:29:17.987Z,18.20
2018-09-04T18:31:46.295Z,18.10
2018-09-04T18:34:14.677Z,18.10
2018-09-04T18:36:42.998Z,18.00
2018-09-04T18:39:11.309Z,17.90
2018-09-04T18:41:39.607Z,17.90
2018-09-04T18:44:07.844Z,17.90
2018-09-04T18:46:36.133Z,17.90
2018-09-04T18:49:04.530Z,17.80
2018-09-04T18:51:32.790Z,17.80
2018-09-04T18:54:01.017Z,17.80
2018-09-04T18:56:29.441Z,17.70
2018-09-04T18:58:57.742Z,17.60
2018-09-04T19:01:26.000Z,17.50
2018-09-04T19:03:54.326Z,17.40
2018-09-04T19:06:22.576Z,17.50
2018-09-04T19:08:50.925Z,17.40
2018-09-04T19:11:19.144Z,17.30
2018-09-04T19:13:47.439Z,17.30
2018-09-04T19:16:16.020Z,17.30
2018-09-04T19:18:44.260Z,17.20
2018-09-04T19:21:12.578Z,17.20
2018-09-04T19:23:40.810Z,17.20
2018-09-04T19:26:09.171Z,17.10
2018-09-04T19:28:37.476Z,17.20
2018-09-04T19:31:05.809Z,17.10
2018-09-04T19:33:34.140Z,17.10
2018-09-04T19:36:02.426Z,17.10
2018-09-04T19:38:30.750Z,17.00
2018-09-04T19:40:59.012Z,17.00
2018-09-04T19:43:27.270Z,17.10
2018-09-04T19:45:55.536Z,17.00
2018-09-04T19:48:23.902Z,17.00
2018-09-04T19:50:52.223Z,16.90
2018-09-04T19:53:20.553Z,16.80
2018-09-04T19:55:48.877Z,16.80
2018-09-04T19:58:17.253Z,16.70
2018-09-04T20:00:45.693Z,16.70
2018-09-04T20:03:13.972Z,16.60
2018-09-04T20:05:42.280Z,16.60
2018-09-04T20:08:10.600Z,16.70
2018-09-04T20:10:38.978Z,16.70
2018-09-04T20:13:07.359Z,16.70
2018-09-04T20:15:35.669Z,16.60
2018-09-04T20:18:03.942Z,16.70
2018-09-04T20:20:32.247Z,16.70
2018-09-04T20:23:00.704Z,16.60
2018-09-04T20:25:29.046Z,16.60
2018-09-04T20:27:57.381Z,16.50
2018-09-04T20:30:25.766Z,16.60
2018-09-04T20:32:54.084Z,16.50
2018-09-04T20:35:22.310Z,16.60
2018-09-04T20:37:50.599Z,16.60
2018-09-04T20:40:18.859Z,16.50
2018-09-04T20:42:47.202Z,16.50
2018-09-04T20:45:15.490Z,16.60
2018-09-04T20:47:43.797Z,16.60
2018-09-04T20:50:12.110Z,16.60
2018-09-04T20:52:40.406Z,16.50
2018-09-04T20:55:08.729Z,16.50
2018-09-04T20:57:40.174Z,16.40
2018-09-04T21:00:25.461Z,16.30
2018-09-04T21:03:05.079Z,16.40
2018-09-04T21:05:44.989Z,16.40
2018-09-04T21:08:23.049Z,16.30
2018-09-04T21:10:52.119Z,16.30
2018-09-04T21:13:20.374Z,16.40
2018-09-04T21:15:48.655Z,16.30
2018-09-04T21:18:16.980Z,16.30
2018-09-04T21:20:45.299Z,16.30
2018-09-04T21:23:13.663Z,16.30
2018-09-04T21:25:41.956Z,16.20
2018-09-04T21:28:10.275Z,16.20
2018-09-04T21:30:38.482Z,16.10
2018-09-04T21:33:06.752Z,16.20
2018-09-04T21:35:35.039Z,16.20
2018-09-04T21:38:03.283Z,16.20
2018-09-04T21:40:31.567Z,16.10
2018-09-04T21:42:59.844Z,16.00
2018-09-04T21:45:28.189Z,16.00
2018-09-04T21:47:56.530Z,16.10
2018-09-04T21:50:24.778Z,16.00
2018-09-04T21:52:53.093Z,16.00
2018-09-04T21:55:21.336Z,16.10
2018-09-04T21:57:49.622Z,16.00
2018-09-04T22:00:23.427Z,16.00
2018-09-04T22:02:51.769Z,16.00
2018-09-04T22:05:20.156Z,16.00
2018-09-04T22:07:48.639Z,15.90
2018-09-04T22:10:16.893Z,16.00
2018-09-04T22:12:45.176Z,16.00
2018-09-04T22:15:13.458Z,15.90
2018-09-04T22:17:41.717Z,16.00
2018-09-04T22:20:09.967Z,15.90
2018-09-04T22:22:38.247Z,16.00
2018-09-04T22:25:06.594Z,15.90
2018-09-04T22:27:34.906Z,15.80
2018-09-04T22:30:03.530Z,15.90
2018-09-04T22:32:31.922Z,15.80
2018-09-04T22:35:00.277Z,15.80
2018-09-04T22:37:28.562Z,15.90
2018-09-04T22:39:56.877Z,15.80
2018-09-04T22:42:25.205Z,15.90
2018-09-04T22:44:53.544Z,15.80
2018-09-04T22:47:21.831Z,15.80
2018-09-04T22:49:55.569Z,15.80
2018-09-04T22:52:30.307Z,15.90
2018-09-04T22:55:01.014Z,15.80
2018-09-04T22:57:29.369Z,15.80
2018-09-04T22:59:57.633Z,15.70
2018-09-04T23:02:25.903Z,15.70
2018-09-04T23:04:54.227Z,15.80
2018-09-04T23:07:22.483Z,15.80
2018-09-04T23:09:50.794Z,15.80
2018-09-04T23:12:19.083Z,15.80
2018-09-04T23:14:47.426Z,15.70
2018-09-04T23:17:15.711Z,15.70
2018-09-04T23:19:44.024Z,15.70
2018-09-04T23:22:12.320Z,15.60
2018-09-04T23:24:40.601Z,15.70
2018-09-04T23:27:08.912Z,15.60
2018-09-04T23:29:37.818Z,15.60
2018-09-04T23:32:06.141Z,15.60
2018-09-04T23:34:34.709Z,15.50
2018-09-04T23:37:03.283Z,15.60
2018-09-04T23:39:31.616Z,15.60
2018-09-04T23:41:59.858Z,15.60
2018-09-04T23:44:28.179Z,15.50
2018-09-04T23:46:56.471Z,15.60
2018-09-04T23:49:24.812Z,15.60
2018-09-04T23:51:53.047Z,15.60
2018-09-04T23:54:21.330Z,15.60
2018-09-04T23:56:49.611Z,15.50
2018-09-04T23:59:17.875Z,15.50
